Pagrindinis puslapis
METAR-TAF:

METAR-TAF

Oro uostai :

Ørland, Norvegija

platuma: 63-42N, ilguma: 009-36E, Aukštis: 0 m

Dabartinis oras

Ataskaita buvo paskelbta 48 minutes, ne 12:50 UTC
Vėjas 8 kt iš Šiaurės Vakarų
Temperatūra 17°C
Drėgmė 59%
Slėgis 1028 hPa
Matomumas 10 km arba daugiau
nėra debesų žemiau 1500 m ir nėra kamuolinių lietaus debesų

METAR: ENOL 011250Z 32008KT CAVOK 17/09 Q1028 NOSIG

Laikas: 15:38 (13:38 UTC)

Prognozė

Prognozė galioja nuo 01 metu 12 UTC su 02 metu 12 UTC
Vėjas 10 kt iš Šiaurės Vakarų
Matomumas 10 km arba daugiau
nėra debesų žemiau 1500 m ir nėra kamuolinių lietaus debesų
Tapsmas
nuo 01 metu 16 UTC su 01 metu 18 UTC
Vėjas 5 kt nuo kintamojo kryptimis

TAF: ENOL 0112/0212 32010KT CAVOK BECMG 0116/0118 VRB05KT

Orai ataskaitas ir orų prognozės (METAR, TAF).

turimą stotys yra geltonos ir raudonos taškus žemėlapyje.

Perkelti pele per norėdami pamatyti stoties vardą.

Tada spustelėkite, norėdami matyti oro stebėjimo ir prognozės.

Norėdami pakeisti žemėlapį: spustelėkite ant žalios mygtukų su juodo kryžiaus žemyn,; žalią mygtuką su brūkšneliu, jei norite nutolinti; arba žalių rodyklių gretimoms žemėlapius.


METAR-TAF: